createdAt,value
2018-03-07T00:01:34.250Z,5.82
2018-03-07T00:04:01.800Z,5.78
2018-03-07T00:06:29.329Z,5.81
2018-03-07T00:08:57.077Z,5.82
2018-03-07T00:11:24.611Z,5.68
2018-03-07T00:13:52.246Z,5.65
2018-03-07T00:16:19.818Z,5.54
2018-03-07T00:18:47.354Z,5.56
2018-03-07T00:21:14.874Z,5.57
2018-03-07T00:23:42.430Z,5.59
2018-03-07T00:26:09.942Z,5.61
2018-03-07T00:28:37.475Z,5.61
2018-03-07T00:31:05.085Z,5.67
2018-03-07T00:33:32.702Z,5.73
2018-03-07T00:36:00.254Z,5.66
2018-03-07T00:38:27.795Z,5.67
2018-03-07T00:40:55.350Z,5.60
2018-03-07T00:43:23.283Z,5.51
2018-03-07T00:45:50.926Z,5.47
2018-03-07T00:48:18.464Z,5.42
2018-03-07T00:50:46.031Z,5.34
2018-03-07T00:53:13.579Z,5.22
2018-03-07T00:55:41.108Z,5.10
2018-03-07T00:58:08.618Z,4.97
2018-03-07T01:00:36.179Z,4.82
2018-03-07T01:03:03.748Z,4.69
2018-03-07T01:05:32.120Z,4.58
2018-03-07T01:07:59.881Z,4.48
2018-03-07T01:10:27.598Z,4.45
2018-03-07T01:12:55.107Z,4.46
2018-03-07T01:15:22.654Z,4.38
2018-03-07T01:17:50.237Z,4.37
2018-03-07T01:20:19.566Z,4.26
2018-03-07T01:22:47.110Z,4.18
2018-03-07T01:25:31.460Z,4.15
2018-03-07T01:27:59.021Z,4.22
2018-03-07T01:30:26.757Z,4.21
2018-03-07T01:32:54.637Z,4.13
2018-03-07T01:35:22.171Z,4.09
2018-03-07T01:37:49.736Z,4.02
2018-03-07T01:40:17.371Z,3.99
2018-03-07T01:42:45.135Z,3.95
2018-03-07T01:45:12.670Z,3.95
2018-03-07T01:47:40.254Z,3.99
2018-03-07T01:50:07.809Z,3.93
2018-03-07T01:52:35.336Z,3.92
2018-03-07T01:55:02.857Z,3.79
2018-03-07T01:57:30.379Z,3.79
2018-03-07T01:59:57.909Z,3.75
2018-03-07T02:02:25.533Z,3.74
2018-03-07T02:04:53.703Z,3.60
2018-03-07T02:07:21.219Z,3.57
2018-03-07T02:09:48.741Z,3.47
2018-03-07T02:12:16.287Z,3.49
2018-03-07T02:14:43.824Z,3.54
2018-03-07T02:17:11.336Z,3.49
2018-03-07T02:19:39.205Z,3.64
2018-03-07T02:22:06.979Z,3.68
2018-03-07T02:24:34.503Z,3.74
2018-03-07T02:27:02.042Z,3.76
2018-03-07T02:29:29.616Z,3.68
2018-03-07T02:31:57.544Z,3.54
2018-03-07T02:34:25.074Z,3.55
2018-03-07T02:36:53.397Z,3.68
2018-03-07T02:39:21.127Z,3.68
2018-03-07T02:41:48.810Z,3.71
2018-03-07T02:44:16.855Z,3.61
2018-03-07T02:46:45.600Z,3.60
2018-03-07T02:49:13.157Z,3.58
2018-03-07T02:51:40.698Z,3.60
2018-03-07T02:54:08.210Z,3.58
2018-03-07T02:56:36.385Z,3.59
2018-03-07T02:59:03.887Z,3.58
2018-03-07T03:01:31.448Z,3.55
2018-03-07T03:03:59.005Z,3.48
2018-03-07T03:06:26.567Z,3.47
2018-03-07T03:08:54.066Z,3.49
2018-03-07T03:11:21.608Z,3.48
2018-03-07T03:13:49.139Z,3.41
2018-03-07T03:16:16.634Z,3.40
2018-03-07T03:18:44.126Z,3.33
2018-03-07T03:21:11.707Z,3.37
2018-03-07T03:23:39.277Z,3.26
2018-03-07T03:26:06.831Z,3.28
2018-03-07T03:28:34.383Z,3.29
2018-03-07T03:31:01.956Z,3.27
2018-03-07T03:33:29.478Z,3.29
2018-03-07T03:35:57.562Z,3.20
2018-03-07T03:38:25.061Z,3.21
2018-03-07T03:40:53.385Z,3.16
2018-03-07T03:43:21.242Z,3.15
2018-03-07T03:45:48.945Z,3.23
2018-03-07T03:48:16.493Z,3.20
2018-03-07T03:50:44.183Z,3.17
2018-03-07T03:53:11.769Z,3.18
2018-03-07T03:55:39.289Z,3.11
2018-03-07T03:58:06.859Z,2.98
2018-03-07T04:00:34.368Z,2.92
2018-03-07T04:03:01.925Z,2.86
2018-03-07T04:05:29.445Z,2.80
2018-03-07T04:07:56.976Z,2.76
2018-03-07T04:10:24.503Z,2.71
2018-03-07T04:12:52.041Z,2.75
2018-03-07T04:15:19.601Z,2.77
2018-03-07T04:17:47.150Z,2.71
2018-03-07T04:20:14.656Z,2.62
2018-03-07T04:22:43.073Z,2.60
2018-03-07T04:25:10.652Z,2.59
2018-03-07T04:27:38.248Z,2.68
2018-03-07T04:30:05.781Z,2.76
2018-03-07T04:32:33.275Z,2.82
2018-03-07T04:35:00.849Z,2.88
2018-03-07T04:37:28.374Z,3.00
2018-03-07T04:39:56.246Z,3.09
2018-03-07T04:42:24.031Z,3.10
2018-03-07T04:44:51.550Z,3.13
2018-03-07T04:47:20.679Z,3.10
2018-03-07T04:49:48.353Z,3.11
2018-03-07T04:52:16.590Z,3.11
2018-03-07T04:54:44.124Z,3.15
2018-03-07T04:57:11.645Z,3.19
2018-03-07T04:59:39.481Z,3.20
2018-03-07T05:02:07.815Z,3.14
2018-03-07T05:04:35.418Z,3.17
2018-03-07T05:07:02.956Z,3.21
2018-03-07T05:09:30.521Z,3.12
2018-03-07T05:11:58.065Z,3.14
2018-03-07T05:14:25.906Z,3.21
2018-03-07T05:16:53.810Z,3.22
2018-03-07T05:19:21.675Z,3.28
2018-03-07T05:21:49.227Z,3.23
2018-03-07T05:24:16.793Z,3.23
2018-03-07T05:26:44.319Z,3.26
2018-03-07T05:29:11.873Z,3.31
2018-03-07T05:31:39.407Z,3.43
2018-03-07T05:34:06.926Z,3.47
2018-03-07T05:36:34.471Z,3.54
2018-03-07T05:39:02.746Z,3.55
2018-03-07T05:41:30.456Z,3.61
2018-03-07T05:43:57.994Z,3.64
2018-03-07T05:46:25.503Z,3.69
2018-03-07T05:48:53.048Z,3.74
2018-03-07T05:51:20.620Z,3.76
2018-03-07T05:53:48.159Z,3.83
2018-03-07T05:56:15.677Z,3.79
2018-03-07T05:58:43.214Z,3.80
2018-03-07T06:01:10.808Z,3.88
2018-03-07T06:03:38.483Z,3.91
2018-03-07T06:06:06.316Z,3.98
2018-03-07T06:08:33.893Z,4.04
2018-03-07T06:11:01.407Z,4.11
2018-03-07T06:13:28.986Z,4.09
2018-03-07T06:15:56.515Z,4.16
2018-03-07T06:18:24.054Z,4.16
2018-03-07T06:20:51.582Z,4.23
2018-03-07T06:23:19.085Z,4.20
2018-03-07T06:25:46.850Z,4.20
2018-03-07T06:28:14.591Z,4.25
2018-03-07T06:30:42.152Z,4.25
2018-03-07T06:33:09.688Z,4.32
2018-03-07T06:35:37.613Z,4.43
2018-03-07T06:38:05.197Z,4.48
2018-03-07T06:40:32.812Z,4.57
2018-03-07T06:43:00.361Z,4.59
2018-03-07T06:45:27.976Z,4.67
2018-03-07T06:47:55.675Z,4.75
2018-03-07T06:50:23.205Z,4.78
2018-03-07T06:52:50.881Z,4.78
2018-03-07T06:55:19.112Z,4.76
2018-03-07T06:57:46.630Z,4.84
2018-03-07T07:00:14.279Z,4.85
2018-03-07T07:02:41.806Z,4.98
2018-03-07T07:05:09.333Z,4.94
2018-03-07T07:07:36.855Z,5.07
2018-03-07T07:10:04.620Z,5.13
2018-03-07T07:12:32.275Z,5.19
2018-03-07T07:14:59.863Z,5.26
2018-03-07T07:17:27.385Z,5.18
2018-03-07T07:19:54.947Z,5.23
2018-03-07T07:22:22.458Z,5.20
2018-03-07T07:24:49.989Z,5.25
2018-03-07T07:27:17.515Z,5.23
2018-03-07T07:29:45.040Z,5.30
2018-03-07T07:32:12.547Z,5.31
2018-03-07T07:34:40.465Z,5.30
2018-03-07T07:37:07.994Z,5.35
2018-03-07T07:39:35.632Z,5.38
2018-03-07T07:42:03.170Z,5.44
2018-03-07T07:44:31.269Z,5.56
2018-03-07T07:46:58.835Z,5.68
2018-03-07T07:49:26.500Z,5.74
2018-03-07T07:51:54.066Z,5.76
2018-03-07T07:54:21.625Z,5.76
2018-03-07T07:56:49.152Z,5.90
2018-03-07T07:59:16.723Z,6.01
2018-03-07T08:01:44.254Z,6.08
2018-03-07T08:04:11.788Z,6.27
2018-03-07T08:06:39.301Z,6.37
2018-03-07T08:09:06.988Z,6.61
2018-03-07T08:11:34.494Z,6.87
2018-03-07T08:14:02.018Z,7.11
2018-03-07T08:16:30.021Z,7.35
2018-03-07T08:18:58.093Z,7.54
2018-03-07T08:21:25.614Z,7.74
2018-03-07T08:23:54.394Z,8.12
2018-03-07T08:26:21.903Z,8.11
2018-03-07T08:28:49.392Z,7.92
2018-03-07T08:31:16.917Z,7.84
2018-03-07T08:33:44.473Z,7.72
2018-03-07T08:36:11.969Z,7.55
2018-03-07T08:38:39.540Z,7.50
2018-03-07T08:41:07.623Z,7.62
2018-03-07T08:43:35.170Z,7.85
2018-03-07T08:46:02.765Z,7.89
2018-03-07T08:48:30.281Z,8.08
2018-03-07T08:50:57.816Z,8.08
2018-03-07T08:53:26.489Z,8.11
2018-03-07T08:55:55.590Z,8.16
2018-03-07T08:58:23.345Z,8.25
2018-03-07T09:00:51.378Z,8.30
2018-03-07T09:03:18.999Z,8.63
2018-03-07T09:05:46.550Z,9.05
2018-03-07T09:08:14.042Z,9.17
2018-03-07T09:10:41.549Z,9.21
2018-03-07T09:13:09.067Z,9.34
2018-03-07T09:15:36.840Z,9.59
2018-03-07T09:18:04.320Z,9.84
2018-03-07T09:20:31.812Z,9.87
2018-03-07T09:22:59.377Z,10.11
2018-03-07T09:25:28.135Z,10.09
2018-03-07T09:27:56.708Z,9.83
2018-03-07T09:30:28.398Z,9.98
2018-03-07T09:32:56.380Z,10.19
2018-03-07T09:35:24.025Z,10.50
2018-03-07T09:37:51.542Z,10.83
2018-03-07T09:40:19.075Z,10.51
2018-03-07T09:42:46.609Z,10.45
2018-03-07T09:45:14.887Z,10.62
2018-03-07T09:47:42.475Z,10.44
2018-03-07T09:50:10.075Z,10.30
2018-03-07T09:52:37.605Z,10.09
2018-03-07T09:55:05.115Z,9.92
2018-03-07T09:57:32.814Z,9.89
2018-03-07T10:00:00.427Z,9.79
2018-03-07T10:02:28.023Z,9.46
2018-03-07T10:04:56.400Z,9.20
2018-03-07T10:07:24.023Z,9.10
2018-03-07T10:09:51.956Z,8.92
2018-03-07T10:12:20.453Z,8.81
2018-03-07T10:14:47.961Z,8.74
2018-03-07T10:17:15.476Z,8.57
2018-03-07T10:19:43.934Z,8.38
2018-03-07T10:22:11.420Z,8.37
2018-03-07T10:24:38.950Z,8.04
2018-03-07T10:27:06.578Z,8.02
2018-03-07T10:29:35.051Z,8.16
2018-03-07T10:32:02.588Z,8.78
2018-03-07T10:34:30.103Z,9.02
2018-03-07T10:36:57.849Z,9.12
2018-03-07T10:39:25.377Z,9.28
2018-03-07T10:41:53.974Z,9.53
2018-03-07T10:44:21.526Z,10.06
2018-03-07T10:46:49.044Z,10.39
2018-03-07T10:49:16.614Z,10.21
2018-03-07T10:52:07.027Z,10.68
2018-03-07T10:54:34.655Z,10.88
2018-03-07T10:57:02.331Z,10.82
2018-03-07T10:59:29.897Z,10.88
2018-03-07T11:01:57.445Z,10.69
2018-03-07T11:04:24.961Z,10.41
2018-03-07T11:06:52.481Z,10.51
2018-03-07T11:09:20.083Z,10.55
2018-03-07T11:11:47.644Z,11.16
2018-03-07T11:14:16.366Z,11.51
2018-03-07T11:16:44.092Z,11.52
2018-03-07T11:19:11.652Z,11.17
2018-03-07T11:21:39.452Z,11.29
2018-03-07T11:24:07.373Z,11.50
2018-03-07T11:26:35.673Z,11.60
2018-03-07T11:29:03.252Z,11.43
2018-03-07T11:31:30.810Z,11.58
2018-03-07T11:33:58.637Z,11.31
2018-03-07T11:36:26.140Z,11.73
2018-03-07T11:38:53.696Z,11.43
2018-03-07T11:41:21.220Z,11.37
2018-03-07T11:43:50.199Z,11.29
2018-03-07T11:46:18.026Z,11.30
2018-03-07T11:48:45.519Z,11.69
2018-03-07T11:51:13.048Z,11.96
2018-03-07T11:53:40.538Z,12.14
2018-03-07T11:56:09.767Z,12.11
2018-03-07T11:58:40.357Z,11.84
2018-03-07T12:01:09.744Z,11.71
2018-03-07T12:03:40.395Z,11.73
2018-03-07T12:06:09.859Z,11.34
2018-03-07T12:08:37.739Z,11.39
2018-03-07T12:11:05.559Z,11.78
2018-03-07T12:13:34.624Z,12.06
2018-03-07T12:16:02.148Z,12.16
2018-03-07T12:18:30.475Z,11.94
2018-03-07T12:20:57.956Z,12.69
2018-03-07T12:23:25.465Z,13.64
2018-03-07T12:25:54.371Z,13.42
2018-03-07T12:28:22.290Z,14.34
2018-03-07T12:30:51.508Z,14.91
2018-03-07T12:33:19.513Z,15.65
2018-03-07T12:35:47.202Z,15.80
2018-03-07T12:38:14.731Z,14.44
2018-03-07T12:40:42.261Z,13.35
2018-03-07T12:43:11.004Z,13.32
2018-03-07T12:45:40.187Z,13.17
2018-03-07T12:48:07.712Z,13.25
2018-03-07T12:50:38.204Z,13.14
2018-03-07T12:53:06.201Z,13.05
2018-03-07T12:55:33.732Z,13.04
2018-03-07T12:58:01.232Z,13.14
2018-03-07T13:00:30.390Z,12.92
2018-03-07T13:03:00.544Z,12.78
2018-03-07T13:05:28.327Z,12.46
2018-03-07T13:07:55.989Z,12.27
2018-03-07T13:10:24.589Z,11.98
2018-03-07T13:12:54.392Z,11.97
2018-03-07T13:15:36.574Z,11.93
2018-03-07T13:18:04.135Z,11.80
2018-03-07T13:20:32.901Z,11.59
2018-03-07T13:23:00.542Z,11.43
2018-03-07T13:25:28.075Z,11.28
2018-03-07T13:27:55.637Z,11.10
2018-03-07T13:30:23.213Z,11.26
2018-03-07T13:32:52.425Z,11.10
2018-03-07T13:35:20.305Z,11.14
2018-03-07T13:37:47.815Z,11.07
2018-03-07T13:40:16.852Z,11.03
2018-03-07T13:42:44.431Z,11.44
2018-03-07T13:45:14.282Z,14.69
2018-03-07T13:47:44.098Z,17.16
2018-03-07T13:50:13.210Z,18.73
2018-03-07T13:52:43.092Z,17.79
2018-03-07T13:55:11.607Z,17.39
2018-03-07T13:57:39.165Z,15.70
2018-03-07T14:00:06.801Z,14.40
2018-03-07T14:02:34.422Z,13.20
2018-03-07T14:05:02.566Z,13.22
2018-03-07T14:07:30.260Z,13.02
2018-03-07T14:09:57.772Z,12.83
2018-03-07T14:12:26.303Z,12.92
2018-03-07T14:14:54.245Z,14.01
2018-03-07T14:17:22.294Z,13.52
2018-03-07T14:19:50.454Z,14.06
2018-03-07T14:22:18.094Z,14.43
2018-03-07T14:24:47.235Z,14.74
2018-03-07T14:27:32.799Z,15.04
2018-03-07T14:30:02.341Z,15.76
2018-03-07T14:32:31.448Z,16.20
2018-03-07T14:35:02.275Z,15.88
2018-03-07T14:37:30.268Z,16.56
2018-03-07T14:39:59.574Z,16.45
2018-03-07T14:42:28.059Z,16.64
2018-03-07T14:44:55.805Z,17.09
2018-03-07T14:47:25.327Z,17.77
2018-03-07T14:49:54.330Z,17.43
2018-03-07T14:52:22.402Z,17.52
2018-03-07T14:54:50.995Z,17.10
2018-03-07T14:57:19.989Z,17.88
2018-03-07T14:59:49.290Z,17.84
2018-03-07T15:02:18.547Z,17.91
2018-03-07T15:04:51.588Z,18.71
2018-03-07T15:07:21.440Z,19.48
2018-03-07T15:09:50.973Z,18.97
2018-03-07T15:12:19.315Z,18.58
2018-03-07T15:14:47.255Z,17.94
2018-03-07T15:17:14.775Z,17.79
2018-03-07T15:22:40.824Z,17.56
2018-03-07T15:25:08.696Z,17.85
2018-03-07T15:27:37.472Z,16.02
2018-03-07T15:30:06.791Z,15.21
2018-03-07T15:32:37.189Z,13.90
2018-03-07T15:35:07.238Z,12.93
2018-03-07T15:37:37.046Z,12.32
2018-03-07T15:40:05.434Z,11.70
2018-03-07T15:42:33.969Z,11.97
2018-03-07T15:47:59.495Z,11.57
2018-03-07T15:50:28.834Z,11.30
2018-03-07T15:52:57.584Z,11.07
2018-03-07T15:55:26.571Z,11.09
2018-03-07T15:57:55.874Z,11.13
2018-03-07T16:00:23.730Z,10.84
2018-03-07T16:02:51.598Z,10.64
2018-03-07T16:05:21.047Z,10.40
2018-03-07T16:07:50.196Z,10.40
2018-03-07T16:10:18.019Z,10.32
2018-03-07T16:12:46.898Z,10.19
2018-03-07T16:15:16.424Z,10.20
2018-03-07T16:17:44.249Z,10.17
2018-03-07T16:20:13.279Z,10.02
2018-03-07T16:22:41.035Z,9.96
2018-03-07T16:31:22.650Z,9.89
2018-03-07T16:33:50.404Z,10.05
2018-03-07T16:36:18.220Z,10.11
2018-03-07T16:38:47.470Z,10.45
2018-03-07T16:41:15.351Z,11.06
2018-03-07T16:43:44.226Z,11.16
2018-03-07T16:46:13.786Z,10.79
2018-03-07T16:48:41.696Z,10.40
2018-03-07T16:51:09.608Z,10.10
2018-03-07T16:56:39.864Z,9.23
2018-03-07T16:59:09.587Z,9.07
2018-03-07T17:01:39.414Z,8.98
2018-03-07T17:04:12.445Z,8.81
2018-03-07T17:06:40.265Z,8.65
2018-03-07T17:09:09.532Z,8.56
2018-03-07T17:11:38.066Z,8.43
2018-03-07T17:14:07.553Z,8.29
2018-03-07T17:16:36.648Z,7.92
2018-03-07T17:19:05.275Z,7.62
2018-03-07T17:21:33.500Z,7.43
2018-03-07T17:24:02.762Z,7.25
2018-03-07T17:26:34.872Z,7.12
2018-03-07T17:29:04.911Z,6.98
2018-03-07T17:31:33.256Z,6.85
2018-03-07T17:34:00.731Z,6.74
2018-03-07T17:36:29.097Z,6.60
2018-03-07T17:39:03.492Z,6.53
2018-03-07T17:41:31.949Z,6.48
2018-03-07T17:44:02.378Z,6.31
2018-03-07T17:46:30.552Z,6.33
2018-03-07T17:48:59.206Z,6.34
2018-03-07T17:51:28.077Z,6.28
2018-03-07T17:53:56.742Z,6.28
2018-03-07T17:56:25.483Z,6.15
2018-03-07T17:58:53.827Z,6.08
2018-03-07T18:01:22.915Z,5.93
2018-03-07T18:03:56.983Z,5.86
2018-03-07T18:06:26.821Z,5.76
2018-03-07T18:08:57.034Z,5.71
2018-03-07T18:11:26.560Z,5.75
2018-03-07T18:13:54.087Z,5.65
2018-03-07T18:16:21.957Z,5.66
2018-03-07T18:18:49.653Z,5.66
2018-03-07T18:21:18.038Z,5.57
2018-03-07T18:23:47.317Z,5.43
2018-03-07T18:26:17.217Z,5.33
2018-03-07T18:28:46.204Z,5.19
2018-03-07T18:31:15.120Z,5.16
2018-03-07T18:33:43.645Z,5.02
2018-03-07T18:36:12.854Z,4.93
2018-03-07T18:38:41.102Z,5.03
2018-03-07T18:41:09.182Z,5.20
2018-03-07T18:49:34.210Z,5.50
2018-03-07T18:52:04.042Z,5.58
2018-03-07T18:54:32.825Z,5.48
2018-03-07T18:57:00.724Z,5.39
2018-03-07T18:59:28.522Z,5.21
2018-03-07T19:01:56.127Z,5.22
2018-03-07T19:04:38.310Z,5.28
2018-03-07T19:07:05.976Z,5.40
2018-03-07T19:09:33.768Z,5.53
2018-03-07T19:12:01.465Z,5.47
2018-03-07T19:14:34.450Z,5.55
2018-03-07T19:17:02.365Z,5.51
2018-03-07T19:19:30.303Z,5.62
2018-03-07T19:21:57.952Z,5.72
2018-03-07T19:24:30.008Z,5.68
2018-03-07T19:26:57.619Z,5.70
2018-03-07T19:29:25.188Z,5.74
2018-03-07T19:32:03.905Z,5.76
2018-03-07T19:37:35.171Z,5.78
2018-03-07T19:40:05.338Z,5.83
2018-03-07T19:42:34.318Z,5.84
2018-03-07T19:45:04.070Z,5.90
2018-03-07T19:47:38.410Z,5.97
2018-03-07T19:50:24.709Z,6.00
2018-03-07T19:52:58.119Z,6.08
2018-03-07T19:58:19.726Z,6.14
2018-03-07T20:00:48.662Z,6.17
2018-03-07T20:03:17.524Z,6.28
2018-03-07T20:11:32.773Z,6.31
2018-03-07T20:14:09.357Z,6.24
2018-03-07T20:16:39.389Z,6.15
2018-03-07T20:19:07.569Z,6.01
2018-03-07T20:21:40.056Z,5.87
2018-03-07T20:24:15.879Z,5.75
2018-03-07T20:26:45.803Z,5.59
2018-03-07T20:29:14.298Z,5.49
2018-03-07T20:31:44.395Z,5.53
2018-03-07T20:34:13.612Z,5.50
2018-03-07T20:36:42.591Z,5.61
2018-03-07T20:39:10.440Z,5.67
2018-03-07T20:41:38.950Z,5.77
2018-03-07T20:44:06.561Z,5.87
2018-03-07T20:46:39.351Z,5.99
2018-03-07T20:49:08.436Z,6.07
2018-03-07T20:51:37.413Z,6.05
2018-03-07T20:54:05.258Z,6.05
2018-03-07T20:56:34.920Z,5.94
2018-03-07T20:59:03.282Z,5.89
2018-03-07T21:01:38.829Z,5.86
2018-03-07T21:04:07.087Z,5.99
2018-03-07T21:06:34.736Z,6.09
2018-03-07T21:09:09.271Z,6.14
2018-03-07T21:11:37.833Z,6.16
2018-03-07T21:14:11.494Z,6.18
2018-03-07T21:16:41.157Z,6.23
2018-03-07T21:19:10.453Z,6.24
2018-03-07T21:21:40.262Z,6.27
2018-03-07T21:24:13.356Z,6.23
2018-03-07T21:26:42.232Z,6.15
2018-03-07T21:29:09.858Z,6.11
2018-03-07T21:31:39.258Z,6.01
2018-03-07T21:37:10.507Z,5.83
2018-03-07T21:39:40.332Z,5.82
2018-03-07T21:42:08.636Z,5.73
2018-03-07T21:47:34.286Z,5.58
2018-03-07T21:50:03.590Z,5.47
2018-03-07T21:52:32.733Z,5.47
2018-03-07T21:55:00.621Z,5.44
2018-03-07T21:57:28.144Z,5.37
2018-03-07T21:59:57.949Z,5.39
2018-03-07T22:02:26.184Z,5.34
2018-03-07T22:05:11.652Z,5.28
2018-03-07T22:07:40.637Z,5.23
2018-03-07T22:10:09.167Z,5.21
2018-03-07T22:12:40.709Z,5.14
2018-03-07T22:15:11.028Z,5.09
2018-03-07T22:17:40.044Z,5.05
2018-03-07T22:20:08.217Z,4.99
2018-03-07T22:22:37.717Z,4.86
2018-03-07T22:25:06.857Z,4.70
2018-03-07T22:27:34.710Z,4.54
2018-03-07T22:32:54.652Z,4.64
2018-03-07T22:35:22.380Z,4.67
2018-03-07T22:37:50.260Z,4.62
2018-03-07T22:40:18.722Z,4.61
2018-03-07T22:42:48.014Z,4.60
2018-03-07T22:45:16.438Z,4.49
2018-03-07T22:47:44.873Z,4.44
2018-03-07T22:50:14.145Z,4.45
2018-03-07T22:52:43.413Z,4.44
2018-03-07T22:55:12.524Z,4.41
2018-03-07T22:57:40.058Z,4.38
2018-03-07T23:00:14.585Z,4.33
2018-03-07T23:02:43.992Z,4.41
2018-03-07T23:05:12.865Z,4.48
2018-03-07T23:07:40.372Z,4.61
2018-03-07T23:10:07.913Z,4.76
2018-03-07T23:12:35.490Z,4.90
2018-03-07T23:15:08.311Z,4.97
2018-03-07T23:17:36.175Z,5.03
2018-03-07T23:20:04.729Z,5.07
2018-03-07T23:22:34.703Z,5.03
2018-03-07T23:28:00.482Z,5.02
2018-03-07T23:30:28.332Z,5.04
2018-03-07T23:32:56.616Z,5.09
2018-03-07T23:35:24.300Z,5.06
2018-03-07T23:37:51.901Z,5.06
2018-03-07T23:40:20.379Z,4.99
2018-03-07T23:42:48.343Z,4.93
2018-03-07T23:45:15.873Z,4.84
2018-03-07T23:47:43.454Z,4.81
2018-03-07T23:50:11.004Z,4.77
2018-03-07T23:52:40.234Z,4.71
2018-03-07T23:55:09.314Z,4.64
2018-03-07T23:57:38.674Z,4.54
